Time;durP1;ratioP1;P1;durP2;ratioP2;P2;SDS_P1;SDS_P2;PMS_P1;PMS_P2;Temp;Humidity;BMP_temperature;BMP_pressure;BME280_temperature;BME280_humidity;BME280_pressure;Samples;Min_cycle;Max_cycle;Signal;HPM_P1;HPM_P2
2023/06/29 00:00:20;;;;;;;24.70;16.05;;;13.10;99.90;;;;;;4796630;29;20051;-77
2023/06/29 00:02:48;;;;;;;22.58;16.65;;;13.10;99.90;;;;;;4794218;29;20748;-75
2023/06/29 00:05:16;;;;;;;20.00;16.25;;;13.10;99.90;;;;;;4795884;29;20512;-74
2023/06/29 00:07:43;;;;;;;23.10;16.10;;;13.20;99.90;;;;;;4796666;29;20071;-76
2023/06/29 00:10:11;;;;;;;21.95;16.25;;;13.20;99.90;;;;;;4792743;29;20044;-75
2023/06/29 00:12:39;;;;;;;22.38;14.55;;;13.20;99.90;;;;;;4794716;29;20051;-73
2023/06/29 00:15:09;;;;;;;20.35;14.07;;;13.10;99.90;;;;;;4788369;29;20058;-74
2023/06/29 00:17:37;;;;;;;21.27;14.98;;;13.00;99.90;;;;;;4810844;29;20077;-74
2023/06/29 00:20:10;;;;;;;23.30;15.55;;;13.00;99.90;;;;;;4790747;29;20419;-76
2023/06/29 00:22:40;;;;;;;31.02;16.00;;;13.00;99.90;;;;;;4796899;29;20055;-74
2023/06/29 00:25:09;;;;;;;27.42;16.20;;;13.00;99.90;;;;;;4792595;29;20501;-72
2023/06/29 00:27:37;;;;;;;47.35;14.98;;;13.00;99.90;;;;;;4794099;29;20047;-75
2023/06/29 00:30:05;;;;;;;21.52;15.45;;;13.00;99.90;;;;;;4790626;29;20065;-76
2023/06/29 00:32:35;;;;;;;40.60;16.75;;;13.00;99.90;;;;;;4793748;29;20039;-76
2023/06/29 00:35:06;;;;;;;28.30;16.08;;;12.90;99.90;;;;;;4774959;29;20097;-77
2023/06/29 00:37:33;;;;;;;32.58;16.92;;;12.90;99.90;;;;;;4794642;29;20047;-79
2023/06/29 00:40:01;;;;;;;22.27;16.50;;;12.90;99.90;;;;;;4797051;29;20532;-78
2023/06/29 00:42:28;;;;;;;26.67;17.67;;;13.00;99.90;;;;;;4827924;29;20634;-76
2023/06/29 00:44:56;;;;;;;17.85;15.57;;;13.10;99.90;;;;;;4812339;29;20079;-76
2023/06/29 00:47:23;;;;;;;26.85;15.48;;;13.10;99.90;;;;;;4797574;29;20106;-74
2023/06/29 00:49:52;;;;;;;20.75;15.07;;;13.10;99.90;;;;;;4797343;29;20051;-73
2023/06/29 00:52:20;;;;;;;19.13;14.60;;;13.10;99.90;;;;;;4816772;29;20081;-77
2023/06/29 00:54:47;;;;;;;19.33;14.02;;;13.10;99.90;;;;;;4795095;29;20051;-72
2023/06/29 00:57:16;;;;;;;24.25;15.15;;;13.10;99.90;;;;;;4810210;29;20076;-76
2023/06/29 00:59:44;;;;;;;20.90;16.52;;;13.00;99.90;;;;;;4795523;29;20047;-74
2023/06/29 01:02:14;;;;;;;17.60;14.35;;;13.00;99.90;;;;;;4816912;29;20748;-76
2023/06/29 01:04:45;;;;;;;21.10;14.63;;;12.90;99.90;;;;;;4801739;29;20047;-76
2023/06/29 01:07:23;;;;;;;21.98;14.57;;;12.90;99.90;;;;;;4797933;29;20078;-77
2023/06/29 01:09:53;;;;;;;27.08;15.80;;;12.90;99.90;;;;;;4817345;29;20415;-76
2023/06/29 01:12:21;;;;;;;23.50;14.90;;;13.00;99.90;;;;;;4797635;29;20051;-75
2023/06/29 01:14:51;;;;;;;20.55;14.88;;;13.00;99.90;;;;;;4793107;29;20043;-74
2023/06/29 01:17:25;;;;;;;21.98;15.10;;;12.90;99.90;;;;;;4816571;29;20058;-73
2023/06/29 01:19:56;;;;;;;20.77;15.25;;;12.90;99.90;;;;;;4815323;29;20515;-75
2023/06/29 01:22:31;;;;;;;19.75;14.05;;;12.90;99.90;;;;;;4797436;29;20047;-76
2023/06/29 01:25:01;;;;;;;22.75;14.77;;;12.90;99.90;;;;;;4793363;29;20048;-74
2023/06/29 01:27:30;;;;;;;23.55;15.32;;;12.80;99.90;;;;;;4809522;29;20407;-75
2023/06/29 01:30:01;;;;;;;20.80;15.63;;;12.80;99.90;;;;;;4800342;29;20147;-75
2023/06/29 01:32:33;;;;;;;17.27;14.43;;;12.80;99.90;;;;;;4799266;29;20070;-74
2023/06/29 01:35:02;;;;;;;23.63;15.27;;;12.90;99.90;;;;;;4818327;29;20446;-75
2023/06/29 01:37:34;;;;;;;21.95;15.38;;;12.80;99.90;;;;;;4794962;29;20043;-75
2023/06/29 01:40:08;;;;;;;23.30;16.05;;;12.70;99.90;;;;;;4792204;29;20044;-74
2023/06/29 01:42:36;;;;;;;26.88;15.35;;;12.60;99.90;;;;;;4807688;29;20081;-75
2023/06/29 01:45:10;;;;;;;27.00;14.52;;;12.60;99.90;;;;;;4793246;29;20500;-75
2023/06/29 01:47:38;;;;;;;20.27;15.40;;;12.60;99.90;;;;;;4811735;29;20047;-75
2023/06/29 01:50:06;;;;;;;40.08;15.48;;;12.60;99.90;;;;;;4816129;29;20055;-75
2023/06/29 01:52:34;;;;;;;25.33;15.63;;;12.50;99.90;;;;;;4810915;29;20063;-77
2023/06/29 01:55:02;;;;;;;25.30;16.85;;;12.40;99.90;;;;;;4820993;29;20067;-76
2023/06/29 01:57:30;;;;;;;26.85;16.30;;;12.40;99.90;;;;;;4797497;29;20051;-75
2023/06/29 01:59:57;;;;;;;23.30;16.75;;;12.50;99.90;;;;;;4795899;29;20047;-73
2023/06/29 02:02:25;;;;;;;30.30;17.10;;;12.60;99.90;;;;;;4815273;29;20138;-74
2023/06/29 02:04:52;;;;;;;28.75;16.85;;;12.50;99.90;;;;;;4794700;29;20050;-75
2023/06/29 02:07:20;;;;;;;23.38;17.65;;;12.50;99.90;;;;;;4808457;29;20047;-76
2023/06/29 02:09:51;;;;;;;24.13;16.55;;;12.50;99.90;;;;;;4815559;29;20059;-75
2023/06/29 02:12:19;;;;;;;25.70;17.27;;;12.50;99.90;;;;;;4801138;29;20062;-77
2023/06/29 02:14:48;;;;;;;22.67;16.25;;;12.40;99.90;;;;;;4790037;29;20211;-79
2023/06/29 02:17:17;;;;;;;29.90;16.40;;;12.50;99.90;;;;;;4793252;29;20070;-75
2023/06/29 02:19:50;;;;;;;29.83;16.77;;;12.50;99.90;;;;;;4803964;29;20093;-77
2023/06/29 02:22:18;;;;;;;31.20;17.10;;;12.60;99.90;;;;;;4794171;29;20486;-77
2023/06/29 02:24:45;;;;;;;27.90;17.40;;;12.50;99.90;;;;;;4793964;29;20128;-74
2023/06/29 02:27:13;;;;;;;26.17;16.83;;;12.50;99.90;;;;;;4792386;29;20134;-78
2023/06/29 02:29:45;;;;;;;21.58;16.45;;;12.50;99.90;;;;;;4792250;29;20302;-75
2023/06/29 02:32:13;;;;;;;29.00;17.15;;;12.50;99.90;;;;;;4794427;29;20054;-74
2023/06/29 02:34:40;;;;;;;25.42;16.23;;;12.50;99.90;;;;;;4816044;29;20146;-77
2023/06/29 02:37:08;;;;;;;24.33;16.48;;;12.50;99.90;;;;;;4793233;29;20055;-74
2023/06/29 02:39:36;;;;;;;19.05;14.68;;;12.50;99.90;;;;;;4806579;29;20059;-76
2023/06/29 02:42:04;;;;;;;25.83;14.77;;;12.50;99.90;;;;;;4789981;29;20512;-75
2023/06/29 02:44:32;;;;;;;26.58;16.30;;;12.50;99.90;;;;;;4814388;29;20119;-75
2023/06/29 02:47:00;;;;;;;21.75;15.55;;;12.50;99.90;;;;;;4805210;29;20064;-72
2023/06/29 02:49:31;;;;;;;23.30;14.63;;;12.40;99.90;;;;;;4779729;29;20054;-75
2023/06/29 02:51:58;;;;;;;22.65;16.17;;;12.30;99.90;;;;;;4792461;29;20051;-75
2023/06/29 02:54:26;;;;;;;25.40;15.93;;;12.30;99.90;;;;;;4792805;29;20070;-73
2023/06/29 02:56:54;;;;;;;25.42;17.92;;;12.30;99.90;;;;;;4809470;29;20130;-73
2023/06/29 02:59:22;;;;;;;34.35;17.60;;;12.20;99.90;;;;;;4827170;29;20038;-76
2023/06/29 03:01:49;;;;;;;22.30;17.85;;;12.20;99.90;;;;;;4797919;29;20051;-77
2023/06/29 03:04:20;;;;;;;29.83;16.92;;;12.20;99.90;;;;;;4818511;29;20055;-76
2023/06/29 03:06:48;;;;;;;28.95;16.25;;;12.10;99.90;;;;;;4813841;29;20043;-76
2023/06/29 03:09:15;;;;;;;22.52;16.38;;;12.20;99.90;;;;;;4806025;29;20039;-74
2023/06/29 03:11:43;;;;;;;25.42;17.35;;;12.20;99.90;;;;;;4792267;29;20047;-76
2023/06/29 03:14:10;;;;;;;23.42;16.40;;;12.20;99.90;;;;;;4793712;29;20428;-76
2023/06/29 03:16:40;;;;;;;26.05;16.38;;;12.30;99.90;;;;;;4796502;29;20055;-73
2023/06/29 03:19:08;;;;;;;22.83;16.00;;;12.30;99.90;;;;;;4797003;29;20403;-74
2023/06/29 03:21:37;;;;;;;24.00;16.77;;;12.30;99.90;;;;;;4808690;29;20138;-76
2023/06/29 03:24:05;;;;;;;26.20;15.23;;;12.40;99.90;;;;;;4792495;29;20055;-75
2023/06/29 03:26:33;;;;;;;41.33;16.25;;;12.40;99.90;;;;;;4792668;29;20046;-80
2023/06/29 03:29:01;;;;;;;27.63;15.85;;;12.50;99.90;;;;;;4791491;29;20069;-76
2023/06/29 03:31:29;;;;;;;24.33;16.35;;;12.40;99.90;;;;;;4792374;29;20130;-76
2023/06/29 03:34:01;;;;;;;21.70;15.27;;;12.40;99.90;;;;;;4793669;29;20107;-74
2023/06/29 03:36:30;;;;;;;24.08;15.02;;;12.50;99.90;;;;;;4806708;29;20043;-77
2023/06/29 03:38:59;;;;;;;22.92;15.70;;;12.40;99.90;;;;;;4793419;29;20047;-74
2023/06/29 03:41:26;;;;;;;26.40;15.90;;;12.40;99.90;;;;;;4791468;29;20053;-76
2023/06/29 03:43:55;;;;;;;29.15;15.80;;;12.40;99.90;;;;;;4815394;29;20563;-76
2023/06/29 03:46:22;;;;;;;22.27;16.20;;;12.40;99.90;;;;;;4792476;29;20058;-77
2023/06/29 03:48:50;;;;;;;25.60;15.75;;;12.40;99.90;;;;;;4791414;29;20043;-74
2023/06/29 03:51:17;;;;;;;39.70;15.70;;;12.40;99.90;;;;;;4792959;29;20055;-76
2023/06/29 03:53:45;;;;;;;19.25;15.63;;;12.40;99.90;;;;;;4792578;29;20111;-75
2023/06/29 03:56:14;;;;;;;32.05;15.65;;;12.40;99.90;;;;;;4791374;29;20055;-76
2023/06/29 03:58:42;;;;;;;23.73;16.02;;;12.50;99.90;;;;;;4816695;29;20150;-78
2023/06/29 04:01:10;;;;;;;49.47;16.67;;;12.60;99.90;;;;;;4797447;29;20051;-75
2023/06/29 04:03:37;;;;;;;36.28;16.15;;;12.60;99.90;;;;;;4793876;29;20130;-75
2023/06/29 04:06:05;;;;;;;25.55;15.40;;;12.70;99.90;;;;;;4796482;29;20051;-74
2023/06/29 04:08:33;;;;;;;20.30;13.52;;;12.70;99.90;;;;;;4792788;29;20039;-74
2023/06/29 04:11:01;;;;;;;18.15;13.88;;;12.70;99.90;;;;;;4792886;29;20063;-77
2023/06/29 04:13:30;;;;;;;19.90;13.77;;;12.70;99.90;;;;;;4796211;29;20051;-75
2023/06/29 04:15:57;;;;;;;20.75;13.68;;;12.70;99.90;;;;;;4797931;29;20051;-79
2023/06/29 04:18:24;;;;;;;17.67;13.25;;;12.70;99.90;;;;;;4803021;29;20058;-74
2023/06/29 04:20:53;;;;;;;18.42;13.05;;;12.80;99.90;;;;;;4781135;29;20425;-76
2023/06/29 04:23:20;;;;;;;21.08;13.80;;;12.90;99.90;;;;;;4797454;29;20071;-75
2023/06/29 04:25:48;;;;;;;24.20;13.32;;;12.90;99.90;;;;;;4805111;29;20052;-75
2023/06/29 04:28:16;;;;;;;21.45;13.02;;;13.00;99.90;;;;;;4819148;29;20039;-76
2023/06/29 04:30:45;;;;;;;25.67;14.70;;;13.10;99.90;;;;;;4814501;29;20044;-76
2023/06/29 04:33:15;;;;;;;21.10;13.15;;;13.20;99.90;;;;;;4807822;29;20082;-74
2023/06/29 04:35:43;;;;;;;18.85;12.27;;;13.30;99.90;;;;;;4801611;29;20058;-75
2023/06/29 04:38:13;;;;;;;17.92;12.63;;;13.40;99.90;;;;;;4813123;29;20053;-77
2023/06/29 04:40:42;;;;;;;18.83;11.43;;;13.50;99.90;;;;;;4811454;29;20508;-75
2023/06/29 04:43:09;;;;;;;18.13;11.75;;;13.70;99.90;;;;;;4800135;29;20078;-77
2023/06/29 04:45:37;;;;;;;18.85;12.32;;;13.80;99.90;;;;;;4806655;29;20062;-76
2023/06/29 04:48:07;;;;;;;18.10;12.85;;;13.90;99.90;;;;;;4800192;29;20519;-75
2023/06/29 04:50:36;;;;;;;24.83;15.05;;;13.80;99.90;;;;;;4809312;29;20457;-75
2023/06/29 04:53:08;;;;;;;20.55;13.13;;;14.10;99.90;;;;;;4796153;29;20051;-75
2023/06/29 04:55:37;;;;;;;19.38;12.75;;;14.40;99.90;;;;;;4794867;29;20059;-73
2023/06/29 04:58:05;;;;;;;18.80;12.45;;;14.70;99.90;;;;;;4794784;29;20074;-75
2023/06/29 05:00:33;;;;;;;17.85;11.45;;;14.90;99.90;;;;;;4797260;29;20047;-75
2023/06/29 05:03:00;;;;;;;17.02;11.43;;;15.00;99.90;;;;;;4804803;29;20066;-78
2023/06/29 05:05:29;;;;;;;15.90;11.88;;;14.80;99.90;;;;;;4799706;29;20447;-75
2023/06/29 05:07:56;;;;;;;17.80;12.43;;;15.10;99.90;;;;;;4802815;29;20093;-74
2023/06/29 05:10:24;;;;;;;16.90;11.88;;;15.20;99.90;;;;;;4796676;29;20416;-75
2023/06/29 05:12:52;;;;;;;17.85;10.90;;;15.20;99.90;;;;;;4807510;29;20097;-77
2023/06/29 05:15:19;;;;;;;20.73;13.93;;;15.90;99.90;;;;;;4798105;29;20077;-74
2023/06/29 05:17:46;;;;;;;18.00;13.02;;;16.70;99.90;;;;;;4793685;29;20068;-77
2023/06/29 05:20:17;;;;;;;17.08;11.48;;;17.20;99.90;;;;;;4827143;24;20054;-79
2023/06/29 05:22:46;;;;;;;14.27;11.75;;;17.70;99.90;;;;;;4823272;29;20121;-79
2023/06/29 05:25:14;;;;;;;16.20;12.52;;;17.70;99.90;;;;;;4834921;29;20116;-77
2023/06/29 05:27:42;;;;;;;16.05;12.52;;;17.20;99.90;;;;;;4839450;29;20050;-78
2023/06/29 05:30:10;;;;;;;16.70;12.90;;;17.00;99.90;;;;;;4838059;29;20046;-80
2023/06/29 05:32:38;;;;;;;15.88;13.25;;;17.20;99.90;;;;;;4839542;29;20053;-79
2023/06/29 05:35:06;;;;;;;14.75;10.98;;;17.90;99.90;;;;;;4838425;29;20042;-78
2023/06/29 05:37:34;;;;;;;14.13;11.43;;;19.00;99.90;;;;;;4839894;29;20042;-83
2023/06/29 05:40:02;;;;;;;14.95;12.38;;;21.50;99.90;;;;;;4839056;29;20490;-81
2023/06/29 05:42:30;;;;;;;16.13;12.48;;;23.90;99.90;;;;;;4839284;29;20053;-81
2023/06/29 05:44:58;;;;;;;16.73;12.57;;;25.70;99.90;;;;;;4841873;29;20042;-79
2023/06/29 05:47:26;;;;;;;17.92;12.20;;;27.00;99.90;;;;;;4846013;29;20066;-81
2023/06/29 05:49:53;;;;;;;16.90;13.00;;;28.10;99.90;;;;;;4851657;29;20050;-81
2023/06/29 05:52:21;;;;;;;16.17;10.55;;;28.70;99.90;;;;;;4850586;29;20075;-82
2023/06/29 05:54:49;;;;;;;16.13;11.48;;;29.30;99.90;;;;;;4843299;29;20042;-80
2023/06/29 05:57:17;;;;;;;15.40;11.18;;;29.60;99.90;;;;;;4838260;29;20038;-78
2023/06/29 05:59:45;;;;;;;14.63;12.00;;;29.80;99.90;;;;;;4836591;29;20049;-81
2023/06/29 06:02:12;;;;;;;15.25;11.43;;;29.70;99.90;;;;;;4837186;29;20053;-80
2023/06/29 06:04:39;;;;;;;15.55;11.05;;;30.00;99.90;;;;;;4838247;29;20057;-80
2023/06/29 06:07:07;;;;;;;18.25;15.10;;;29.90;99.90;;;;;;4837244;29;20042;-81
2023/06/29 06:09:35;;;;;;;17.80;13.85;;;29.90;99.90;;;;;;4838914;29;20575;-82
2023/06/29 06:12:05;;;;;;;23.25;17.98;;;29.90;99.90;;;;;;4837008;29;20046;-80
2023/06/29 06:14:34;;;;;;;16.80;12.98;;;29.90;99.90;;;;;;4846455;29;20050;-82
2023/06/29 06:17:01;;;;;;;19.60;13.43;;;30.00;99.90;;;;;;4839384;29;20403;-81
2023/06/29 06:19:28;;;;;;;17.90;12.13;;;29.60;99.90;;;;;;4839841;29;20069;-81
2023/06/29 06:21:56;;;;;;;14.30;12.07;;;29.50;99.90;;;;;;4840442;29;20054;-80
2023/06/29 06:24:23;;;;;;;14.15;11.30;;;29.50;99.90;;;;;;4840039;29;20510;-82
2023/06/29 06:26:51;;;;;;;14.30;10.68;;;29.30;99.90;;;;;;4822876;29;20050;-81
2023/06/29 06:29:18;;;;;;;14.00;10.40;;;29.00;99.90;;;;;;4821200;29;20038;-79
2023/06/29 06:31:47;;;;;;;14.10;10.43;;;28.90;99.90;;;;;;4837593;29;20045;-82
2023/06/29 06:34:14;;;;;;;16.63;12.52;;;28.30;99.90;;;;;;4838455;29;20057;-79
2023/06/29 06:36:42;;;;;;;16.88;14.15;;;28.20;99.90;;;;;;4820594;29;20513;-83
2023/06/29 06:39:09;;;;;;;15.68;12.10;;;27.90;99.90;;;;;;4837476;29;20049;-82
2023/06/29 06:41:37;;;;;;;14.07;11.45;;;27.30;99.90;;;;;;4820676;29;20472;-80
2023/06/29 06:44:04;;;;;;;16.13;13.57;;;26.70;99.90;;;;;;4836750;29;20057;-80
2023/06/29 06:46:32;;;;;;;15.48;12.75;;;26.30;99.90;;;;;;4838590;29;20543;-82
2023/06/29 06:49:01;;;;;;;17.75;12.05;;;25.90;99.90;;;;;;4838113;29;20514;-80
2023/06/29 06:51:29;;;;;;;15.88;11.63;;;25.50;99.90;;;;;;4837670;29;20041;-83
2023/06/29 06:53:56;;;;;;;17.95;12.68;;;24.90;99.90;;;;;;4838849;29;20050;-82
2023/06/29 06:56:24;;;;;;;19.73;15.57;;;24.30;99.90;;;;;;4838337;29;20038;-80
2023/06/29 06:58:51;;;;;;;19.02;12.85;;;23.70;99.90;;;;;;4837676;29;20050;-81
2023/06/29 07:01:22;;;;;;;19.55;12.50;;;23.30;99.90;;;;;;4813000;29;20094;-83
2023/06/29 07:03:51;;;;;;;15.93;11.63;;;23.10;99.90;;;;;;4839075;29;20049;-83
2023/06/29 07:06:20;;;;;;;14.10;11.27;;;22.40;99.90;;;;;;4838547;29;20053;-81
2023/06/29 07:08:47;;;;;;;14.30;10.73;;;22.20;99.90;;;;;;4838144;29;20060;-83
2023/06/29 07:11:15;;;;;;;14.38;11.90;;;22.00;99.90;;;;;;4837710;29;20046;-82
2023/06/29 07:13:42;;;;;;;16.95;13.23;;;22.10;99.90;;;;;;4822334;29;20046;-80
2023/06/29 07:16:09;;;;;;;14.65;10.77;;;22.40;99.90;;;;;;4838228;29;20053;-81
2023/06/29 07:18:37;;;;;;;16.35;10.73;;;22.30;99.90;;;;;;4836728;29;20046;-80
2023/06/29 07:21:04;;;;;;;14.00;10.07;;;22.60;99.90;;;;;;4837110;29;20053;-81
2023/06/29 07:23:33;;;;;;;13.15;10.48;;;22.40;99.90;;;;;;4837676;29;20054;-83
2023/06/29 07:26:01;;;;;;;12.75;9.65;;;22.50;99.90;;;;;;4837272;29;20078;-83
2023/06/29 07:28:28;;;;;;;14.60;10.48;;;22.40;99.90;;;;;;4837581;29;20042;-82
2023/06/29 07:30:56;;;;;;;14.50;10.68;;;22.50;99.90;;;;;;4820130;29;20042;-82
2023/06/29 07:33:23;;;;;;;16.45;10.10;;;22.60;99.90;;;;;;4837826;29;20042;-84
2023/06/29 07:35:50;;;;;;;12.40;9.55;;;22.30;99.90;;;;;;4837355;29;20129;-82
2023/06/29 07:38:18;;;;;;;18.45;12.30;;;22.50;99.90;;;;;;4837143;29;20511;-81
2023/06/29 07:40:46;;;;;;;13.82;10.15;;;22.40;99.90;;;;;;4837540;29;20050;-80
2023/06/29 07:43:14;;;;;;;13.90;9.75;;;22.60;99.90;;;;;;4838525;29;20508;-81
2023/06/29 07:45:41;;;;;;;13.57;10.07;;;22.80;99.90;;;;;;4837221;29;20045;-82
2023/06/29 07:48:09;;;;;;;13.65;8.40;;;22.70;99.90;;;;;;4840169;29;20076;-83
2023/06/29 07:50:36;;;;;;;14.88;10.25;;;22.90;99.90;;;;;;4840978;29;20042;-83
2023/06/29 07:53:03;;;;;;;10.05;6.90;;;23.00;99.90;;;;;;4841769;29;20054;-81
2023/06/29 07:55:31;;;;;;;12.50;8.07;;;22.80;99.90;;;;;;4841423;29;20050;-82
2023/06/29 07:58:00;;;;;;;10.93;7.85;;;22.80;99.90;;;;;;4841448;29;20042;-82
2023/06/29 08:00:28;;;;;;;10.88;8.00;;;22.90;99.90;;;;;;4840380;29;20034;-81
2023/06/29 08:02:56;;;;;;;12.68;9.32;;;22.60;99.90;;;;;;4841006;29;20522;-83
2023/06/29 08:05:23;;;;;;;12.30;8.55;;;22.70;99.90;;;;;;4841416;29;20046;-81
2023/06/29 08:07:50;;;;;;;15.68;9.80;;;22.70;99.90;;;;;;4840918;29;20042;-82
2023/06/29 08:10:18;;;;;;;12.32;7.50;;;22.90;99.90;;;;;;4840921;29;20044;-85
2023/06/29 08:12:45;;;;;;;14.25;7.95;;;23.20;99.90;;;;;;4841269;29;20054;-81
2023/06/29 08:15:15;;;;;;;12.27;8.20;;;23.30;99.90;;;;;;4824256;29;20503;-81
2023/06/29 08:17:42;;;;;;;8.00;4.78;;;23.60;99.90;;;;;;4842080;29;20048;-80
2023/06/29 08:20:12;;;;;;;10.40;7.28;;;23.70;99.90;;;;;;4840681;29;20487;-82
2023/06/29 08:22:39;;;;;;;11.20;7.32;;;23.80;99.90;;;;;;4826381;29;20406;-80
2023/06/29 08:25:07;;;;;;;15.27;5.88;;;23.70;99.90;;;;;;4841092;29;20054;-83
2023/06/29 08:27:35;;;;;;;10.52;5.90;;;23.50;99.90;;;;;;4841179;29;20050;-81
2023/06/29 08:30:03;;;;;;;8.20;6.57;;;23.50;99.90;;;;;;4841076;29;20136;-81
2023/06/29 08:32:32;;;;;;;7.05;5.70;;;23.70;99.90;;;;;;4843188;29;20042;-82
2023/06/29 08:34:59;;;;;;;8.88;5.88;;;23.70;99.90;;;;;;4840730;29;20056;-83
2023/06/29 08:37:28;;;;;;;8.55;5.00;;;23.80;99.90;;;;;;4826382;29;20054;-81
2023/06/29 08:39:56;;;;;;;10.15;7.32;;;23.70;99.90;;;;;;4840098;29;20418;-82
2023/06/29 08:42:24;;;;;;;8.18;5.13;;;23.60;99.90;;;;;;4839902;29;20050;-81
2023/06/29 08:44:52;;;;;;;8.43;5.53;;;23.80;99.90;;;;;;4839321;29;20566;-81
2023/06/29 08:47:19;;;;;;;9.30;4.70;;;24.10;99.90;;;;;;4839452;29;20046;-82
2023/06/29 08:49:50;;;;;;;9.10;5.40;;;24.10;99.90;;;;;;4840894;29;20183;-83
2023/06/29 08:52:19;;;;;;;8.23;5.20;;;24.00;99.90;;;;;;4841341;29;20046;-83
2023/06/29 08:54:48;;;;;;;7.03;4.00;;;24.10;99.90;;;;;;4842238;29;20061;-82
2023/06/29 08:57:15;;;;;;;6.68;3.88;;;24.40;99.90;;;;;;4840681;29;20054;-83
2023/06/29 08:59:43;;;;;;;5.15;4.10;;;24.40;99.90;;;;;;4840154;29;20074;-83
2023/06/29 09:02:10;;;;;;;6.05;3.55;;;24.50;99.90;;;;;;4822934;29;20430;-83
2023/06/29 09:04:40;;;;;;;9.25;4.90;;;24.10;99.90;;;;;;4840960;29;20046;-82
2023/06/29 09:07:09;;;;;;;4.78;3.53;;;24.10;99.90;;;;;;4823999;29;20049;-83
2023/06/29 09:09:37;;;;;;;4.75;3.10;;;24.10;99.90;;;;;;4839492;29;20053;-82
2023/06/29 09:12:05;;;;;;;4.35;2.92;;;24.00;99.90;;;;;;4840451;29;20046;-82
2023/06/29 09:14:37;;;;;;;4.65;2.88;;;23.80;99.90;;;;;;4839959;29;20053;-83
2023/06/29 09:17:14;;;;;;;4.85;2.97;;;23.80;99.90;;;;;;4840966;29;20123;-82
2023/06/29 09:19:43;;;;;;;6.80;3.53;;;23.70;99.90;;;;;;4847028;29;20057;-84
2023/06/29 09:22:14;;;;;;;7.50;4.55;;;24.00;99.90;;;;;;4830095;29;20053;-84
2023/06/29 09:24:41;;;;;;;8.05;4.97;;;24.30;99.90;;;;;;4839508;29;20050;-82
2023/06/29 09:27:11;;;;;;;10.23;7.90;;;24.60;99.90;;;;;;4839975;29;20452;-84
2023/06/29 09:29:40;;;;;;;9.45;7.30;;;24.70;99.90;;;;;;4831573;29;20050;-83
2023/06/29 09:32:15;;;;;;;8.23;4.78;;;24.80;99.90;;;;;;4841380;29;20085;-84
2023/06/29 09:34:46;;;;;;;5.70;3.73;;;25.00;99.90;;;;;;4841389;29;20522;-82
2023/06/29 09:37:15;;;;;;;6.28;3.17;;;25.10;99.90;;;;;;4843382;29;20065;-84
2023/06/29 09:39:58;;;;;;;4.35;2.58;;;24.90;99.90;;;;;;4839040;29;20090;-84
2023/06/29 09:42:28;;;;;;;4.53;2.83;;;25.10;99.90;;;;;;4858371;29;20030;-81
2023/06/29 09:44:55;;;;;;;6.13;3.28;;;25.20;99.90;;;;;;4846892;29;20128;-83
2023/06/29 09:47:24;;;;;;;5.07;3.28;;;25.40;99.90;;;;;;4840281;29;20053;-82
2023/06/29 09:49:51;;;;;;;5.32;3.20;;;25.50;99.90;;;;;;4839067;29;20050;-83
2023/06/29 09:52:21;;;;;;;10.77;3.63;;;25.70;99.90;;;;;;4839789;29;20235;-82
2023/06/29 09:54:50;;;;;;;6.32;4.15;;;25.80;99.90;;;;;;4839157;29;20046;-83
2023/06/29 09:57:19;;;;;;;6.78;3.58;;;25.90;99.90;;;;;;4820552;29;20056;-78
2023/06/29 09:59:49;;;;;;;6.65;4.10;;;26.10;99.90;;;;;;4839451;29;20046;-81
2023/06/29 10:02:17;;;;;;;5.90;3.08;;;26.40;99.90;;;;;;4838669;29;20087;-82
2023/06/29 10:04:45;;;;;;;5.70;3.70;;;26.60;99.90;;;;;;4838636;29;20046;-80
2023/06/29 10:07:16;;;;;;;5.15;3.00;;;26.70;99.90;;;;;;4838146;29;20049;-78
2023/06/29 10:09:48;;;;;;;7.10;5.07;;;26.80;99.90;;;;;;4837749;29;20189;-79
2023/06/29 10:12:19;;;;;;;4.82;3.30;;;26.90;99.90;;;;;;4839443;29;20049;-80
2023/06/29 10:14:47;;;;;;;4.38;3.00;;;26.80;99.90;;;;;;4838359;29;20054;-83
2023/06/29 10:17:20;;;;;;;4.72;3.08;;;26.60;99.90;;;;;;4840051;29;20052;-80
2023/06/29 10:19:49;;;;;;;5.03;2.40;;;26.40;99.90;;;;;;4838746;29;20137;-81
2023/06/29 10:22:18;;;;;;;4.25;2.45;;;26.40;99.90;;;;;;4840364;29;20045;-80
2023/06/29 10:24:50;;;;;;;7.10;3.95;;;26.20;99.90;;;;;;4842074;29;20054;-81
2023/06/29 10:27:18;;;;;;;6.60;3.75;;;26.00;99.90;;;;;;4844204;29;20050;-82
2023/06/29 10:29:47;;;;;;;4.35;2.75;;;26.30;99.90;;;;;;4845190;29;20071;-86
2023/06/29 10:32:30;;;;;;;3.95;2.75;;;26.30;99.90;;;;;;4839962;29;20064;-81
2023/06/29 10:35:04;;;;;;;6.43;3.60;;;26.50;99.90;;;;;;4837602;29;20054;-83
2023/06/29 10:37:32;;;;;;;7.43;4.38;;;27.00;99.90;;;;;;4838825;29;20082;-84
2023/06/29 10:40:01;;;;;;;7.38;4.20;;;27.70;99.90;;;;;;4839096;29;20042;-81
2023/06/29 10:42:56;;;;;;;7.63;5.05;;;28.10;99.90;;;;;;4823174;29;20491;-85
2023/06/29 10:45:34;;;;;;;6.03;4.22;;;28.40;99.90;;;;;;4806853;29;20053;-83
2023/06/29 10:48:04;;;;;;;6.40;3.83;;;28.40;99.90;;;;;;4838071;29;20123;-81
2023/06/29 10:50:32;;;;;;;7.15;3.60;;;28.50;99.90;;;;;;4837916;29;20110;-80
2023/06/29 10:53:01;;;;;;;5.43;3.30;;;28.30;99.90;;;;;;4838198;29;20452;-82
2023/06/29 10:55:44;;;;;;;6.05;3.60;;;28.00;99.90;;;;;;4838285;29;20570;-81
2023/06/29 10:58:18;;;;;;;5.95;3.50;;;27.70;99.90;;;;;;4835910;29;20050;-82
2023/06/29 11:00:46;;;;;;;6.57;4.35;;;27.30;99.90;;;;;;4830052;29;20513;-81
2023/06/29 11:03:14;;;;;;;7.45;3.83;;;27.10;99.90;;;;;;4837226;29;20702;-81
2023/06/29 11:05:43;;;;;;;6.72;3.47;;;27.30;99.90;;;;;;4837671;29;20456;-80
2023/06/29 11:08:11;;;;;;;7.72;3.60;;;27.20;99.90;;;;;;4836730;29;20054;-78
2023/06/29 11:10:40;;;;;;;7.65;5.72;;;27.30;99.90;;;;;;4837684;29;20540;-81
2023/06/29 11:13:11;;;;;;;9.68;4.22;;;27.50;99.90;;;;;;4837306;29;20060;-80
2023/06/29 11:15:39;;;;;;;8.82;4.38;;;27.50;99.90;;;;;;4835809;29;20060;-80
2023/06/29 11:18:07;;;;;;;8.45;4.32;;;27.50;99.90;;;;;;4837259;29;20172;-80
2023/06/29 11:20:38;;;;;;;8.57;4.15;;;27.70;99.90;;;;;;4843014;24;20046;-78
2023/06/29 11:23:07;;;;;;;7.05;4.07;;;27.40;99.90;;;;;;4826952;29;20803;-75
2023/06/29 11:25:36;;;;;;;9.70;5.38;;;27.30;99.90;;;;;;4836107;29;20050;-77
2023/06/29 11:28:05;;;;;;;9.80;4.82;;;27.20;99.90;;;;;;4835305;29;20055;-77
2023/06/29 11:30:33;;;;;;;7.63;4.53;;;27.50;99.90;;;;;;4835794;29;20053;-78
2023/06/29 11:33:02;;;;;;;6.50;3.67;;;27.60;99.90;;;;;;4836789;29;20526;-76
2023/06/29 11:35:31;;;;;;;10.18;7.70;;;28.00;99.90;;;;;;4835483;29;20433;-77
2023/06/29 11:38:01;;;;;;;9.82;5.00;;;28.30;99.90;;;;;;4836574;29;20225;-78
2023/06/29 11:40:29;;;;;;;9.07;3.85;;;28.50;99.90;;;;;;4836514;29;20045;-77
2023/06/29 11:42:57;;;;;;;11.10;4.28;;;28.30;99.90;;;;;;4835420;29;20122;-77
2023/06/29 11:45:26;;;;;;;7.97;4.47;;;28.40;99.90;;;;;;4836157;29;20052;-78
2023/06/29 11:47:56;;;;;;;5.13;3.33;;;28.50;99.90;;;;;;4836987;29;20058;-76
2023/06/29 11:50:24;;;;;;;6.57;4.10;;;28.30;99.90;;;;;;4834042;29;20686;-77
2023/06/29 11:52:52;;;;;;;7.65;3.65;;;28.10;99.90;;;;;;4835487;29;20334;-76
2023/06/29 11:55:20;;;;;;;10.13;5.47;;;27.80;99.90;;;;;;4837134;29;20034;-77
2023/06/29 11:57:52;;;;;;;8.27;4.63;;;27.70;99.90;;;;;;4836187;29;20078;-77
2023/06/29 12:00:36;;;;;;;5.47;3.70;;;27.30;99.90;;;;;;4812020;29;20498;-78
2023/06/29 12:03:11;;;;;;;5.32;2.78;;;26.90;99.90;;;;;;4836829;29;20042;-77
2023/06/29 12:05:42;;;;;;;7.68;3.42;;;26.30;99.90;;;;;;4836738;29;20057;-77
2023/06/29 12:08:10;;;;;;;7.20;3.85;;;26.10;99.90;;;;;;4836719;29;20045;-79
2023/06/29 12:10:39;;;;;;;6.03;3.58;;;25.50;99.90;;;;;;4836634;29;20074;-78
2023/06/29 12:13:11;;;;;;;4.95;3.03;;;25.60;99.90;;;;;;4837100;29;20046;-78
2023/06/29 12:15:43;;;;;;;6.57;3.00;;;25.50;99.90;;;;;;4839424;29;20042;-78
2023/06/29 12:18:16;;;;;;;4.05;2.72;;;25.80;99.90;;;;;;4839300;29;20057;-77
2023/06/29 12:20:44;;;;;;;9.50;4.28;;;25.80;99.90;;;;;;4836673;29;20052;-78
2023/06/29 12:23:14;;;;;;;10.18;3.95;;;26.00;99.90;;;;;;4837165;29;20046;-77
2023/06/29 12:25:46;;;;;;;5.72;3.20;;;26.00;99.90;;;;;;4836484;29;20056;-78
2023/06/29 12:28:14;;;;;;;5.82;4.00;;;26.20;99.90;;;;;;4837281;29;20053;-76
2023/06/29 12:30:43;;;;;;;5.75;3.70;;;26.50;99.90;;;;;;4836519;29;20215;-77
2023/06/29 12:33:12;;;;;;;5.28;3.50;;;26.60;99.90;;;;;;4836510;29;20515;-77
2023/06/29 12:35:39;;;;;;;6.97;4.57;;;26.70;99.90;;;;;;4838831;29;20419;-78
2023/06/29 12:38:07;;;;;;;6.15;2.80;;;26.80;99.90;;;;;;4840321;29;20488;-76
2023/06/29 12:40:35;;;;;;;6.22;2.70;;;26.80;99.90;;;;;;4840068;29;20494;-77